Latest Weather Observations for Devonport Airport

IDT60801

Issued at 11:11 pm EDT Friday 14 December 2018 (issued every 10 minutes, with the page automatically refreshed every 10 minutes)

About weather observations | Map of weather stations | Latest weather observations for TAS | Other Formats
Station Details ID: 091126 Name: DEVONPORT AIRPORT Lat: -41.17 Lon: 146.43 Height: 8.0 m
Data from the previous 72 hours. | See also: Recent months at Devonport Airport
Date/Time
EDT
Temp
°C
App
Temp
°C
Dew
Point
°C
Rel
Hum
%
Delta-T
°C
Wind Press
QNH
hPa
Press
MSL
hPa
Rain since
9am
mm
Dir  Spd
km/h
Gust
km/h
Spd
kts
Gust
kts
14/11:00pm 18.6 13.1 13.5 72 2.9 SE 35 44 19 24 1013.9 1013.9 0.0
14/10:32pm 18.9 13.4 13.5 71 3.1 SE 35 54 19 29 1014.1 1014.1 0.0
14/10:30pm 18.9 13.7 13.5 71 3.1 SE 33 43 18 23 1014.1 1014.1 0.0
14/10:00pm 19.0 13.9 13.2 69 3.3 SE 32 41 17 22 1014.2 1014.2 0.0
14/09:30pm 19.4 14.7 13.3 68 3.5 SE 30 41 16 22 1014.1 1014.1 0.0
14/09:00pm 19.5 15.4 13.7 69 3.3 SE 28 43 15 23 1013.7 1013.7 0.0
14/08:30pm 19.7 15.5 13.4 67 3.6 SE 28 33 15 18 1013.4 1013.4 0.0
14/08:00pm 20.0 15.8 13.5 66 3.7 SE 28 44 15 24 1013.4 1013.4 0.0
14/07:30pm 20.5 15.5 13.5 64 4.0 SE 32 43 17 23 1012.8 1012.8 0.0
14/07:00pm 21.1 17.7 13.8 63 4.2 SE 24 30 13 16 1012.6 1012.6 0.0
14/06:30pm 21.7 16.9 13.9 61 4.5 SE 32 41 17 22 1011.9 1011.9 0.0
14/06:00pm 22.5 18.9 14.1 59 4.9 SE 26 35 14 19 1011.8 1011.8 0.0
14/05:30pm 22.3 17.8 13.9 59 4.9 SE 30 37 16 20 1011.8 1011.8 0.0
14/05:00pm 22.9 18.4 13.9 57 5.3 SE 30 39 16 21 1011.6 1011.6 0.0
14/04:30pm 23.2 19.1 13.9 56 5.4 SE 28 39 15 21 1011.3 1011.3 0.0
14/04:00pm 23.5 19.7 13.7 54 5.7 SE 26 35 14 19 1011.1 1011.1 0.0
14/03:30pm 24.1 19.6 12.7 49 6.6 SE 28 39 15 21 1010.8 1010.8 0.0
14/03:00pm 24.6 20.3 13.2 49 6.6 SE 28 35 15 19 1010.8 1010.8 0.0
14/02:30pm 24.1 19.2 12.4 48 6.7 ESE 30 41 16 22 1011.0 1011.0 0.0
14/02:00pm 23.5 18.4 11.9 48 6.6 SE 30 41 16 22 1011.2 1011.2 0.0
14/01:30pm 23.6 18.5 12.0 48 6.6 SE 30 43 16 23 1011.2 1011.2 0.0
14/01:00pm 22.7 16.9 10.8 47 6.6 SE 32 44 17 24 1011.4 1011.4 0.0
14/12:30pm 22.6 16.8 10.7 47 6.6 SE 32 43 17 23 1011.5 1011.5 0.0
14/12:00pm 22.8 16.7 10.3 45 6.9 SE 33 43 18 23 1011.5 1011.5 0.0
14/11:30am 22.5 16.7 10.9 48 6.4 SE 32 43 17 23 1011.2 1011.2 0.0
14/11:00am 21.9 16.0 11.3 51 5.9 SE 33 44 18 24 1011.1 1011.1 0.0
14/10:30am 21.7 15.3 10.8 50 6.0 SE 35 46 19 25 1010.8 1010.8 0.0
14/10:00am 20.9 15.2 11.3 54 5.3 SE 32 41 17 22 1010.9 1010.9 0.0
14/09:30am 20.5 14.2 11.2 55 5.1 SE 35 46 19 25 1010.7 1010.7 0.0
14/09:00am 20.6 14.8 11.5 56 5.0 SE 33 48 18 26 1010.5 1010.5 0.0
14/08:30am 19.8 13.1 11.0 57 4.8 SE 37 50 20 27 1010.4 1010.4 0.0
14/08:00am 18.3 12.7 11.4 64 3.8 SSE 32 41 17 22 1010.1 1010.1 0.0
14/07:30am 17.4 11.8 11.4 68 3.3 SSE 32 41 17 22 1010.0 1010.0 0.0
14/07:00am 16.7 12.4 12.0 74 2.6 SSE 26 33 14 18 1010.0 1010.0 0.0
14/06:30am 15.9 11.2 12.1 78 2.1 SE 28 37 15 20 1009.9 1009.9 0.0
14/06:00am 16.3 12.3 11.7 74 2.5 SE 24 35 13 19 1009.5 1009.5 0.0
14/05:30am 17.0 12.2 11.5 70 3.0 SE 28 41 15 22 1009.2 1009.2 0.0
14/05:00am 17.5 12.6 11.3 67 3.4 SE 28 39 15 21 1008.6 1008.6 0.0
14/04:30am 17.7 13.1 12.2 70 3.0 SE 28 39 15 21 1008.3 1008.3 0.0
14/04:00am 18.0 14.7 12.7 71 3.0 SE 22 35 12 19 1008.2 1008.2 0.0
14/03:30am 18.2 14.2 12.9 71 3.0 SE 26 35 14 19 1008.0 1008.0 0.0
14/03:00am 18.2 13.9 13.1 72 2.9 SE 28 37 15 20 1007.8 1007.8 0.0
14/02:30am 18.2 14.2 13.1 72 2.9 SE 26 37 14 20 1007.9 1007.9 0.0
14/02:00am 18.2 14.6 13.1 72 2.9 SE 24 37 13 20 1007.9 1007.9 0.0
14/01:30am 17.9 15.2 13.4 75 2.5 SSE 20 28 11 15 1007.8 1007.8 0.0
14/01:00am 18.0 15.4 13.7 76 2.4 SE 20 28 11 15 1008.1 1008.1 0.0
14/12:30am 17.9 14.9 13.8 77 2.3 SE 22 32 12 17 1007.9 1007.9 0.0
14/12:00am 18.4 15.1 14.1 76 2.5 SSE 24 35 13 19 1007.6 1007.6 0.0
 
Date/Time
EDT
Temp
°C
App
Temp
°C
Dew
Point
°C
Rel
Hum
%
Delta-T
°C
Wind Press
QNH
hPa
Press
MSL
hPa
Rain since
9am
mm
Dir  Spd
km/h
Gust
km/h
Spd
kts
Gust
kts
13/11:30pm 19.0 15.1 14.3 74 2.7 SE 28 35 15 19 1007.7 1007.7 0.0
13/11:00pm 19.2 16.5 14.7 75 2.6 SE 22 28 12 15 1007.7 1007.7 0.0
13/10:30pm 19.3 17.2 13.7 70 3.2 SE 17 24 9 13 1007.4 1007.4 0.0
13/10:00pm 19.8 17.0 13.3 66 3.7 SE 20 28 11 15 1007.1 1007.1 0.0
13/09:30pm 19.7 17.2 13.4 67 3.6 SE 19 26 10 14 1006.8 1006.8 0.0
13/09:00pm 20.2 16.3 13.2 64 4.0 ESE 26 35 14 19 1006.1 1006.1 0.0
13/08:30pm 20.1 16.4 14.0 68 3.5 ESE 26 37 14 20 1006.0 1006.0 0.0
13/08:00pm 20.4 17.4 14.7 70 3.3 ESE 24 35 13 19 1005.6 1005.6 0.0
13/07:30pm 20.3 17.5 15.3 73 3.0 ESE 24 32 13 17 1005.3 1005.3 0.0
13/07:00pm 20.3 17.6 15.5 74 2.9 ESE 24 37 13 20 1004.9 1004.9 0.0
13/06:30pm 20.2 18.4 16.0 77 2.5 ESE 20 28 11 15 1004.4 1004.4 0.0
13/06:00pm 20.0 17.8 16.0 78 2.4 ESE 22 33 12 18 1004.2 1004.2 0.0
13/05:30pm 19.9 17.0 16.2 79 2.2 E 26 33 14 18 1004.0 1004.0 0.0
13/05:26pm 19.9 16.7 16.2 79 2.2 E 28 35 15 19 1004.0 1004.0 0.0
13/05:00pm 20.1 16.8 16.1 78 2.4 ESE 28 41 15 22 1003.5 1003.5 0.0
13/04:46pm 20.2 17.0 16.4 79 2.3 E 28 43 15 23 1003.4 1003.4 0.0
13/04:37pm 20.3 17.2 16.5 79 2.3 E 28 46 15 25 1003.3 1003.3 0.0
13/04:30pm 20.1 16.1 16.1 78 2.4 E 32 46 17 25 1003.2 1003.2 0.0
13/04:00pm 20.7 16.8 16.5 77 2.5 E 32 44 17 24 1003.2 1003.2 0.0
13/03:30pm 21.1 17.3 16.7 76 2.7 E 32 46 17 25 1003.1 1003.1 0.0
13/03:10pm 21.6 17.1 16.3 72 3.2 E 35 54 19 29 1002.7 1002.7 0.0
13/03:00pm 22.4 19.1 18.0 76 2.8 E 32 44 17 24 1002.9 1002.9 0.0
13/02:46pm 20.5 16.8 16.9 80 2.2 ESE 32 46 17 25 1002.8 1002.8 0.0
13/02:34pm 19.8 16.8 16.8 83 1.8 E 28 46 15 25 1002.8 1002.8 0.0
13/02:30pm 19.7 17.1 16.9 84 1.7 E 26 37 14 20 1002.9 1002.9 0.0
13/02:06pm 19.1 16.6 17.2 89 1.2 ESE 26 39 14 21 1002.8 1002.8 0.0
13/02:00pm 18.8 16.2 16.9 89 1.2 ESE 26 37 14 20 1002.7 1002.7 0.0
13/01:30pm 18.9 16.0 17.0 89 1.1 ESE 28 39 15 21 1002.7 1002.7 0.0
13/01:24pm 19.0 16.1 17.0 88 1.2 ESE 28 39 15 21 1002.7 1002.7 0.0
13/01:01pm 19.1 16.5 16.9 87 1.3 ESE 26 35 14 19 1002.7 1002.7 0.0
13/01:00pm 19.1 16.5 16.9 87 1.3 ESE 26 41 14 22 1002.7 1002.7 0.0
13/12:32pm 18.9 16.2 16.5 86 1.4 ESE 26 39 14 21 1002.6 1002.6 0.0
13/12:30pm 19.0 16.4 16.8 87 1.3 ESE 26 35 14 19 1002.8 1002.8 0.0
13/12:15pm 19.2 16.4 16.4 84 1.7 ESE 26 39 14 21 1002.7 1002.7 0.0
13/12:00pm 19.4 17.1 16.6 84 1.7 ESE 24 37 13 20 1002.6 1002.6 0.0
13/11:30am 19.4 16.5 16.2 82 1.9 ESE 26 35 14 19 1002.2 1002.2 0.0
13/11:00am 19.4 15.4 16.1 81 2.0 ESE 32 44 17 24 1002.2 1002.2 0.0
13/10:30am 19.4 16.5 16.1 81 2.0 ESE 26 41 14 22 1002.3 1002.3 0.0
13/10:00am 19.2 16.7 16.1 82 1.9 ESE 24 33 13 18 1002.4 1002.4 0.0
13/09:44am 19.2 16.0 16.2 83 1.8 ESE 28 37 15 20 1002.4 1002.4 0.0
13/09:30am 18.8 15.5 16.0 84 1.7 ESE 28 44 15 24 1002.5 1002.5 0.0
13/09:00am 18.0 14.8 16.3 90 1.0 ESE 28 35 15 19 1002.6 1002.6 0.4
13/08:30am 17.4 14.6 16.4 94 0.6 ESE 26 37 14 20 1002.7 1002.7 0.4
13/08:10am 17.1 15.1 16.5 96 0.4 SE 22 32 12 17 1002.8 1002.8 0.4
13/08:00am 17.1 15.1 16.5 96 0.4 SE 22 32 12 17 1002.9 1002.9 0.4
13/07:30am 16.9 14.8 16.3 96 0.4 SE 22 30 12 16 1003.2 1003.2 0.2
13/07:00am 16.9 15.4 16.3 96 0.4 ESE 19 26 10 14 1003.3 1003.3 0.2
13/06:30am 16.9 15.6 15.8 93 0.6 ESE 17 20 9 11 1003.7 1003.7 0.0
13/06:02am 17.4 15.9 15.2 87 1.3 E 17 24 9 13 1003.8 1003.8 0.0
13/06:00am 17.5 15.6 15.1 86 1.4 E 19 24 10 13 1003.8 1003.8 0.0
13/05:30am 17.8 15.6 14.9 83 1.7 ESE 20 30 11 16 1003.4 1003.4 0.0
13/05:00am 17.9 16.2 14.6 81 1.9 E 17 22 9 12 1003.7 1003.7 0.0
13/04:33am 17.9 15.5 14.4 80 2.0 E 20 30 11 16 1003.6 1003.6 0.0
13/04:30am 17.9 15.5 14.4 80 2.0 ESE 20 28 11 15 1003.7 1003.7 0.0
13/04:00am 17.9 16.3 14.0 78 2.2 ESE 15 22 8 12 1003.7 1003.7 0.0
13/03:30am 17.8 15.8 13.9 78 2.2 SE 17 26 9 14 1004.1 1004.1 0.0
13/03:00am 17.6 16.0 13.9 79 2.1 SE 15 22 8 12 1004.9 1004.9 0.0
13/02:30am 17.4 15.9 14.1 81 1.9 ESE 15 19 8 10 1005.6 1005.6 0.0
13/02:00am 17.8 16.6 13.9 78 2.2 ESE 13 19 7 10 1006.3 1006.3 0.0
13/01:30am 17.8 15.8 13.9 78 2.2 ESE 17 22 9 12 1006.6 1006.6 0.0
13/01:00am 17.9 15.5 13.8 77 2.3 ESE 19 26 10 14 1006.3 1006.3 0.0
13/12:30am 17.8 15.7 13.7 77 2.3 E 17 22 9 12 1007.1 1007.1 0.0
13/12:00am 18.0 15.9 13.7 76 2.4 ESE 17 22 9 12 1007.4 1007.4 0.0
 
Date/Time
EDT
Temp
°C
App
Temp
°C
Dew
Point
°C
Rel
Hum
%
Delta-T
°C
Wind Press
QNH
hPa
Press
MSL
hPa
Rain since
9am
mm
Dir  Spd
km/h
Gust
km/h
Spd
kts
Gust
kts
12/11:30pm 18.0 15.9 13.7 76 2.4 ESE 17 22 9 12 1007.8 1007.8 0.0
12/11:00pm 18.0 16.7 13.7 76 2.4 ESE 13 20 7 11 1008.0 1008.0 0.0
12/10:30pm 18.0 14.9 13.5 75 2.5 E 22 30 12 16 1008.2 1008.2 0.0
12/10:00pm 18.1 15.4 13.4 74 2.7 E 20 30 11 16 1008.5 1008.5 0.0
12/09:30pm 18.1 15.5 13.8 76 2.4 E 20 28 11 15 1008.8 1008.8 0.0
12/09:00pm 18.0 13.2 14.1 78 2.2 ENE 32 43 17 23 1009.0 1009.0 0.0
12/08:30pm 18.3 15.4 14.0 76 2.5 ENE 22 35 12 19 1009.0 1009.0 0.0
12/08:00pm 18.3 14.3 14.2 77 2.4 NE 28 33 15 18 1008.9 1008.9 0.0
12/07:30pm 18.6 13.7 14.3 76 2.5 NE 33 41 18 22 1008.5 1008.5 0.0
12/07:00pm 18.8 14.1 14.3 75 2.6 ENE 32 43 17 23 1008.6 1008.6 0.0
12/06:30pm 18.8 13.8 14.1 74 2.7 ENE 33 43 18 23 1009.1 1009.1 0.0
12/06:00pm 18.8 14.5 14.3 75 2.6 NE 30 37 16 20 1009.5 1009.5 0.0
12/05:30pm 19.2 14.6 14.5 74 2.7 NE 32 37 17 20 1009.9 1009.9 0.0
12/05:00pm 19.1 14.4 14.4 74 2.7 NE 32 41 17 22 1010.0 1010.0 0.0
12/04:30pm 19.6 15.1 13.8 69 3.3 NE 30 35 16 19 1010.4 1010.4 0.0
12/04:00pm 19.8 16.0 13.7 68 3.5 NE 26 33 14 18 1010.6 1010.6 0.0
12/03:30pm 19.7 14.7 13.9 69 3.3 NE 33 41 18 22 1011.0 1011.0 0.0
12/03:00pm 19.3 14.8 13.9 71 3.1 NE 30 37 16 20 1011.5 1011.5 0.0
12/02:30pm 19.1 14.0 13.1 68 3.4 NE 32 35 17 19 1012.0 1012.0 0.0
12/02:00pm 20.8 16.4 13.0 61 4.4 ENE 28 33 15 18 1012.3 1012.3 0.0
12/01:30pm 20.2 15.0 12.9 63 4.1 NE 32 37 17 20 1012.9 1012.9 0.0
12/01:00pm 19.5 14.1 12.8 65 3.8 NE 33 39 18 21 1013.4 1013.4 0.0
12/12:30pm 20.4 13.8 9.9 51 5.6 ENE 35 44 19 24 1013.5 1013.5 0.0
12/12:00pm 19.4 13.5 12.4 64 3.9 NE 35 44 19 24 1014.2 1014.2 0.0
12/11:30am 19.4 14.1 13.1 67 3.6 NE 33 41 18 22 1014.5 1014.5 0.0
12/11:00am 19.2 13.2 12.2 64 3.9 NE 35 43 19 23 1014.6 1014.6 0.0
12/10:30am 19.3 14.3 12.3 64 3.9 NE 30 35 16 19 1014.9 1014.9 0.0
12/10:00am 18.6 15.4 11.4 63 3.9 NE 19 28 10 15 1015.5 1015.5 0.0
12/09:30am 18.0 14.8 11.1 64 3.7 ENE 19 26 10 14 1015.9 1015.9 0.0
12/09:00am 17.3 13.9 11.1 67 3.3 E 20 30 11 16 1016.0 1016.0 0.0
12/08:30am 16.8 13.4 10.6 67 3.3 ESE 19 28 10 15 1016.0 1016.0 0.0
12/08:00am 16.2 12.6 10.5 69 3.0 E 20 24 11 13 1016.2 1016.2 0.0
12/07:30am 15.5 12.5 10.7 73 2.5 ESE 17 22 9 12 1016.3 1016.3 0.0
12/07:00am 14.5 12.0 11.1 80 1.8 ESE 15 20 8 11 1016.3 1016.3 0.0
12/06:30am 13.1 11.0 11.3 89 1.0 SE 13 15 7 8 1016.4 1016.4 0.0
12/06:00am 11.9 9.6 10.6 92 0.7 SE 13 15 7 8 1016.5 1016.5 0.0
12/05:30am 11.7 9.1 10.8 94 0.5 SE 15 17 8 9 1016.5 1016.5 0.0
12/05:00am 12.0 9.5 11.1 94 0.5 SE 15 17 8 9 1016.7 1016.7 0.0
12/04:30am 12.0 10.2 10.9 93 0.6 SE 11 13 6 7 1017.1 1017.1 0.0
12/04:00am 12.6 10.6 11.5 93 0.6 SE 13 15 7 8 1017.3 1017.3 0.0
12/03:30am 13.3 11.3 11.5 89 1.0 ESE 13 17 7 9 1017.5 1017.5 0.0
12/03:00am 13.4 12.0 12.1 92 0.7 SSE 11 13 6 7 1017.7 1017.7 0.0
12/02:30am 13.6 11.9 12.3 92 0.7 SSE 13 15 7 8 1018.3 1018.2 0.0
12/02:00am 13.8 12.8 12.4 91 0.8 SSE 9 11 5 6 1018.7 1018.6 0.0
12/01:44am 13.5 12.4 12.1 91 0.8 ESE 9 11 5 6 1018.9 1018.8 0.0
12/01:30am 13.6 12.2 12.2 91 0.8 E 11 13 6 7 1019.0 1018.9 0.0
12/01:00am 13.9 12.2 12.5 91 0.8 E 13 15 7 8 1019.4 1019.3 0.0
12/12:56am 13.9 12.2 12.5 91 0.8 E 13 15 7 8 1019.4 1019.3 0.0
12/12:30am 13.9 11.8 12.5 91 0.8 E 15 19 8 10 1019.6 1019.5 0.0
12/12:00am 14.4 12.9 13.0 91 0.8 E 13 17 7 9 1019.7 1019.6 0.0
 
Date/Time
EDT
Temp
°C
App
Temp
°C
Dew
Point
°C
Rel
Hum
%
Delta-T
°C
Wind Press
QNH
hPa
Press
MSL
hPa
Rain since
9am
mm
Dir  Spd
km/h
Gust
km/h
Spd
kts
Gust
kts
11/11:30pm 14.0 12.3 12.6 91 0.8 E 13 17 7 9 1019.7 1019.6 0.0

Other Formats:

Comma delimited format used in spreadsheet applications
http://www.bom.gov.au/fwo/IDT60801/IDT60801.95960.axf

JavaScript Object Notation format (JSON) in row-major order
http://www.bom.gov.au/fwo/IDT60801/IDT60801.95960.json